createdAt,value
2017-08-01T00:01:29.369Z,101574.87
2017-08-01T00:03:55.626Z,101555.83
2017-08-01T00:06:21.866Z,101561.31
2017-08-01T00:08:48.111Z,101569.67
2017-08-01T00:11:14.362Z,101579.13
2017-08-01T00:13:40.600Z,101573.11
2017-08-01T00:17:35.545Z,101565.98
2017-08-01T00:20:01.807Z,101563.94
2017-08-01T00:22:28.078Z,101567.03
2017-08-01T00:24:54.337Z,101563.62
2017-08-01T00:27:20.576Z,101557.25
2017-08-01T00:29:46.822Z,101553.59
2017-08-01T00:32:13.088Z,101549.83
2017-08-01T00:34:39.336Z,101552.66
2017-08-01T00:37:05.572Z,101556.30
2017-08-01T00:39:31.835Z,101563.84
2017-08-01T00:41:58.080Z,101567.28
2017-08-01T00:44:24.332Z,101557.66
2017-08-01T00:46:50.585Z,101571.17
2017-08-01T00:49:16.820Z,101570.77
2017-08-01T00:51:43.056Z,101566.24
2017-08-01T00:54:09.316Z,101568.18
2017-08-01T00:56:35.555Z,101596.02
2017-08-01T00:59:01.802Z,101591.12
2017-08-01T01:01:28.063Z,101581.70
2017-08-01T01:03:54.309Z,101585.30
2017-08-01T01:06:20.573Z,101585.67
2017-08-01T01:08:46.854Z,101596.02
2017-08-01T01:11:13.098Z,101600.98
2017-08-01T01:13:39.348Z,101602.64
2017-08-01T01:17:35.203Z,101608.13
2017-08-01T01:20:01.861Z,101609.52
2017-08-01T01:22:28.092Z,101607.52
2017-08-01T01:24:54.352Z,101611.70
2017-08-01T01:27:20.605Z,101614.98
2017-08-01T01:29:46.849Z,101609.98
2017-08-01T01:32:13.145Z,101612.92
2017-08-01T01:34:39.953Z,101618.49
2017-08-01T01:37:06.253Z,101624.28
2017-08-01T01:39:32.551Z,101614.47
2017-08-01T01:41:58.829Z,101607.11
2017-08-01T01:44:25.083Z,101598.33
2017-08-01T01:46:51.357Z,101592.63
2017-08-01T01:49:17.633Z,101584.98
2017-08-01T01:51:43.913Z,101578.33
2017-08-01T01:54:10.209Z,101583.63
2017-08-01T01:56:36.476Z,101578.76
2017-08-01T01:59:02.728Z,101584.47
2017-08-01T02:01:29.001Z,101581.17
2017-08-01T02:03:55.273Z,101577.35
2017-08-01T02:06:21.512Z,101576.64
2017-08-01T02:08:47.800Z,101565.41
2017-08-01T02:11:14.073Z,101562.87
2017-08-01T02:13:40.328Z,101568.55
2017-08-01T02:17:35.901Z,101559.17
2017-08-01T02:20:02.181Z,101552.95
2017-08-01T02:22:28.436Z,101558.77
2017-08-01T02:24:54.708Z,101561.88
2017-08-01T02:27:20.953Z,101555.49
2017-08-01T02:29:47.228Z,101552.95
2017-08-01T02:32:13.503Z,101549.88
2017-08-01T02:34:39.782Z,101555.67
2017-08-01T02:37:06.072Z,101558.59
2017-08-01T02:39:32.331Z,101557.71
2017-08-01T02:41:58.565Z,101566.70
2017-08-01T02:44:24.813Z,101561.34
2017-08-01T02:46:51.088Z,101557.22
2017-08-01T02:49:17.344Z,101555.49
2017-08-01T02:51:43.570Z,101553.47
2017-08-01T02:54:09.870Z,101549.66
2017-08-01T02:56:36.114Z,101555.36
2017-08-01T02:59:02.379Z,101551.23
2017-08-01T03:01:28.624Z,101547.69
2017-08-01T03:03:54.874Z,101558.49
2017-08-01T03:06:21.115Z,101563.68
2017-08-01T03:08:47.367Z,101568.92
2017-08-01T03:11:13.596Z,101565.05
2017-08-01T03:13:39.841Z,101561.64
2017-08-01T03:17:35.550Z,101558.13
2017-08-01T03:20:01.801Z,101560.83
2017-08-01T03:22:28.049Z,101566.39
2017-08-01T03:24:54.308Z,101562.52
2017-08-01T03:27:20.576Z,101551.61
2017-08-01T03:29:46.829Z,101551.61
2017-08-01T03:32:13.090Z,101551.66
2017-08-01T03:34:39.331Z,101556.53
2017-08-01T03:37:05.572Z,101559.89
2017-08-01T03:39:31.861Z,101554.16
2017-08-01T03:41:58.115Z,101559.11
2017-08-01T03:44:24.335Z,101554.23
2017-08-01T03:46:50.608Z,101554.84
2017-08-01T03:49:16.845Z,101555.44
2017-08-01T03:51:43.081Z,101555.23
2017-08-01T03:54:09.369Z,101552.16
2017-08-01T03:56:35.593Z,101560.62
2017-08-01T03:59:01.849Z,101554.45
2017-08-01T04:01:28.132Z,101556.55
2017-08-01T04:03:54.397Z,101552.93
2017-08-01T04:06:20.632Z,101547.80
2017-08-01T04:08:46.900Z,101552.69
2017-08-01T04:11:13.143Z,101556.22
2017-08-01T04:13:39.383Z,101549.37
2017-08-01T04:17:36.235Z,101556.84
2017-08-01T04:20:02.509Z,101553.27
2017-08-01T04:22:29.496Z,101557.73
2017-08-01T04:24:55.748Z,101557.68
2017-08-01T04:27:21.996Z,101549.64
2017-08-01T04:29:48.248Z,101550.86
2017-08-01T04:32:14.521Z,101558.90
2017-08-01T04:34:40.754Z,101558.83
2017-08-01T04:37:07.001Z,101547.48
2017-08-01T04:39:33.246Z,101548.02
2017-08-01T04:41:59.491Z,101554.64
2017-08-01T04:44:25.751Z,101553.13
2017-08-01T04:46:52.005Z,101555.75
2017-08-01T04:49:18.255Z,101561.75
2017-08-01T04:51:44.497Z,101567.30
2017-08-01T04:54:10.793Z,101581.84
2017-08-01T04:56:37.037Z,101583.56
2017-08-01T04:59:03.282Z,101584.77
2017-08-01T05:01:29.537Z,101599.36
2017-08-01T05:03:55.764Z,101609.84
2017-08-01T05:06:22.028Z,101610.09
2017-08-01T05:08:48.301Z,101610.80
2017-08-01T05:11:14.574Z,101613.02
2017-08-01T05:13:40.820Z,101603.37
2017-08-01T05:17:36.663Z,101608.39
2017-08-01T05:20:02.922Z,101592.24
2017-08-01T05:22:29.159Z,101603.48
2017-08-01T05:24:55.462Z,101606.41
2017-08-01T05:27:21.696Z,101598.52
2017-08-01T05:29:47.936Z,101592.93
2017-08-01T05:32:14.200Z,101598.16
2017-08-01T05:34:40.433Z,101591.05
2017-08-01T05:37:06.661Z,101582.16
2017-08-01T05:39:32.921Z,101569.66
2017-08-01T05:41:59.165Z,101563.68
2017-08-01T05:44:25.410Z,101573.91
2017-08-01T05:46:51.676Z,101572.16
2017-08-01T05:49:17.901Z,101561.43
2017-08-01T05:51:44.139Z,101564.24
2017-08-01T05:54:10.403Z,101567.38
2017-08-01T05:56:36.639Z,101580.50
2017-08-01T05:59:02.877Z,101594.00
2017-08-01T06:01:29.145Z,101596.29
2017-08-01T06:03:55.417Z,101620.55
2017-08-01T06:06:21.677Z,101640.60
2017-08-01T06:08:47.936Z,101650.88
2017-08-01T06:11:14.172Z,101656.08
2017-08-01T06:13:40.457Z,101664.77
2017-08-01T06:17:56.497Z,101667.84
2017-08-01T06:20:26.428Z,101665.89
2017-08-01T06:22:52.696Z,101655.59
2017-08-01T06:25:19.050Z,101649.09
2017-08-01T06:27:45.310Z,101650.27
2017-08-01T06:30:11.544Z,101656.42
2017-08-01T06:32:37.804Z,101669.88
2017-08-01T06:35:04.061Z,101669.71
2017-08-01T06:37:30.301Z,101668.13
2017-08-01T06:39:56.661Z,101668.63
2017-08-01T06:42:22.909Z,101668.45
2017-08-01T06:44:49.279Z,101665.66
2017-08-01T06:47:15.581Z,101657.36
2017-08-01T06:49:41.827Z,101659.83
2017-08-01T06:52:08.083Z,101655.11
2017-08-01T06:54:34.349Z,101647.13
2017-08-01T06:57:00.596Z,101642.09
2017-08-01T06:59:26.856Z,101650.53
2017-08-01T07:01:53.143Z,101656.55
2017-08-01T07:04:19.397Z,101664.95
2017-08-01T07:06:45.632Z,101662.70
2017-08-01T07:09:11.884Z,101663.81
2017-08-01T07:11:38.109Z,101661.76
2017-08-01T07:14:04.348Z,101670.10
2017-08-01T07:17:36.190Z,101682.44
2017-08-01T07:20:02.945Z,101688.36
2017-08-01T07:22:29.706Z,101703.11
2017-08-01T07:24:55.994Z,101697.83
2017-08-01T07:27:22.239Z,101698.40
2017-08-01T07:29:48.477Z,101692.92
2017-08-01T07:32:14.744Z,101688.34
2017-08-01T07:34:40.980Z,101687.30
2017-08-01T07:37:07.256Z,101697.63
2017-08-01T07:39:33.564Z,101694.37
2017-08-01T07:41:59.816Z,101703.21
2017-08-01T07:44:26.060Z,101697.82
2017-08-01T07:46:52.326Z,101693.74
2017-08-01T07:49:18.578Z,101692.77
2017-08-01T07:51:44.868Z,101700.47
2017-08-01T07:54:11.130Z,101696.00
2017-08-01T07:56:37.373Z,101688.64
2017-08-01T07:59:03.616Z,101692.14
2017-08-01T08:01:29.887Z,101694.20
2017-08-01T08:03:56.137Z,101692.06
2017-08-01T08:06:22.377Z,101698.61
2017-08-01T08:08:48.678Z,101703.98
2017-08-01T08:11:14.945Z,101700.89
2017-08-01T08:13:41.208Z,101700.47
2017-08-01T08:17:35.485Z,101692.59
2017-08-01T08:20:02.504Z,101691.77
2017-08-01T08:22:28.813Z,101701.75
2017-08-01T08:24:55.067Z,101705.05
2017-08-01T08:27:21.344Z,101711.65
2017-08-01T08:29:47.608Z,101704.36
2017-08-01T08:32:13.948Z,101702.20
2017-08-01T08:34:40.171Z,101702.89
2017-08-01T08:37:06.418Z,101691.22
2017-08-01T08:39:32.714Z,101692.88
2017-08-01T08:41:59.023Z,101692.30
2017-08-01T08:44:25.281Z,101697.61
2017-08-01T08:46:51.540Z,101683.53
2017-08-01T08:49:17.829Z,101693.48
2017-08-01T08:51:44.077Z,101698.14
2017-08-01T08:54:10.368Z,101699.14
2017-08-01T08:56:36.611Z,101692.58
2017-08-01T08:59:02.857Z,101692.06
2017-08-01T09:01:29.342Z,101680.20
2017-08-01T09:03:55.599Z,101679.89
2017-08-01T09:06:21.839Z,101678.69
2017-08-01T09:08:48.108Z,101686.94
2017-08-01T09:11:14.340Z,101685.76
2017-08-01T09:13:40.603Z,101693.20
2017-08-01T09:17:35.264Z,101693.48
2017-08-01T09:20:01.814Z,101699.59
2017-08-01T09:22:28.068Z,101685.52
2017-08-01T09:24:54.334Z,101697.18
2017-08-01T09:27:20.582Z,101701.52
2017-08-01T09:29:46.822Z,101705.03
2017-08-01T09:32:13.080Z,101708.08
2017-08-01T09:34:39.326Z,101714.03
2017-08-01T09:37:05.579Z,101713.88
2017-08-01T09:39:31.858Z,101714.77
2017-08-01T09:41:58.140Z,101710.97
2017-08-01T09:44:24.395Z,101701.53
2017-08-01T09:46:50.665Z,101690.40
2017-08-01T09:49:16.919Z,101680.89
2017-08-01T09:51:43.157Z,101689.23
2017-08-01T09:54:09.457Z,101689.22
2017-08-01T09:56:35.692Z,101697.80
2017-08-01T09:59:01.968Z,101694.00
2017-08-01T10:01:28.277Z,101704.39
2017-08-01T10:03:54.527Z,101698.98
2017-08-01T10:06:20.776Z,101704.27
2017-08-01T10:08:47.240Z,101712.42
2017-08-01T10:11:13.524Z,101707.21
2017-08-01T10:13:39.784Z,101715.05
2017-08-01T10:18:08.129Z,101712.92
2017-08-01T10:20:34.377Z,101716.44
2017-08-01T10:23:00.628Z,101713.15
2017-08-01T10:25:27.188Z,101710.88
2017-08-01T10:27:53.431Z,101714.95
2017-08-01T10:30:19.674Z,101717.77
2017-08-01T10:32:45.949Z,101713.50
2017-08-01T10:35:12.213Z,101725.28
2017-08-01T10:37:38.469Z,101726.55
2017-08-01T10:40:05.136Z,101722.90
2017-08-01T10:42:31.390Z,101711.08
2017-08-01T10:44:57.640Z,101704.40
2017-08-01T10:47:23.904Z,101711.37
2017-08-01T10:49:50.148Z,101713.97
2017-08-01T10:52:16.405Z,101718.95
2017-08-01T10:54:42.685Z,101715.92
2017-08-01T10:57:08.933Z,101722.75
2017-08-01T10:59:35.203Z,101730.08
2017-08-01T11:02:02.249Z,101734.98
2017-08-01T11:04:28.500Z,101739.10
2017-08-01T11:06:55.725Z,101739.69
2017-08-01T11:09:22.001Z,101751.14
2017-08-01T11:11:48.251Z,101756.05
2017-08-01T11:14:14.480Z,101749.20
2017-08-01T11:17:35.680Z,101750.95
2017-08-01T11:20:02.432Z,101753.78
2017-08-01T11:22:28.660Z,101751.27
2017-08-01T11:24:54.944Z,101750.95
2017-08-01T11:27:21.194Z,101743.77
2017-08-01T11:29:47.443Z,101746.05
2017-08-01T11:32:13.728Z,101742.05
2017-08-01T11:34:39.982Z,101743.67
2017-08-01T11:37:06.235Z,101745.55
2017-08-01T11:39:32.503Z,101743.38
2017-08-01T11:41:58.764Z,101738.83
2017-08-01T11:44:25.019Z,101739.59
2017-08-01T11:46:51.273Z,101729.39
2017-08-01T11:49:17.519Z,101723.02
2017-08-01T11:51:43.769Z,101715.18
2017-08-01T11:54:10.027Z,101704.73
2017-08-01T11:56:36.253Z,101706.05
2017-08-01T11:59:02.513Z,101705.68
2017-08-01T12:01:28.957Z,101708.02
2017-08-01T12:03:55.203Z,101697.86
2017-08-01T12:06:21.462Z,101696.63
2017-08-01T12:08:47.728Z,101699.38
2017-08-01T12:11:13.991Z,101706.34
2017-08-01T12:13:40.256Z,101705.15
2017-08-01T12:17:36.110Z,101702.34
2017-08-01T12:20:02.383Z,101712.88
2017-08-01T12:22:28.661Z,101709.14
2017-08-01T12:24:54.991Z,101722.36
2017-08-01T12:27:21.271Z,101733.16
2017-08-01T12:29:47.508Z,101730.44
2017-08-01T12:32:13.834Z,101722.94
2017-08-01T12:34:40.129Z,101718.22
2017-08-01T12:37:06.373Z,101713.69
2017-08-01T12:39:32.644Z,101713.98
2017-08-01T12:41:58.961Z,101697.66
2017-08-01T12:44:25.222Z,101676.44
2017-08-01T12:46:51.504Z,101671.74
2017-08-01T12:49:17.747Z,101682.51
2017-08-01T12:51:43.994Z,101679.49
2017-08-01T12:54:10.272Z,101675.38
2017-08-01T12:56:36.548Z,101668.08
2017-08-01T12:59:02.826Z,101664.39
2017-08-01T13:01:29.133Z,101676.23
2017-08-01T13:03:55.364Z,101688.66
2017-08-01T13:06:21.605Z,101695.80
2017-08-01T13:08:47.891Z,101704.80
2017-08-01T13:11:14.135Z,101695.99
2017-08-01T13:13:40.396Z,101700.25
2017-08-01T13:17:35.833Z,101702.59
2017-08-01T13:20:02.096Z,101712.95
2017-08-01T13:22:28.351Z,101710.23
2017-08-01T13:24:54.630Z,101710.73
2017-08-01T13:27:20.904Z,101705.07
2017-08-01T13:29:47.177Z,101700.64
2017-08-01T13:32:13.441Z,101705.98
2017-08-01T13:34:39.676Z,101708.62
2017-08-01T13:37:05.916Z,101717.91
2017-08-01T13:39:32.177Z,101718.44
2017-08-01T13:41:58.428Z,101721.45
2017-08-01T13:44:24.682Z,101718.42
2017-08-01T13:46:50.953Z,101703.71
2017-08-01T13:49:17.199Z,101698.81
2017-08-01T13:51:43.456Z,101694.14
2017-08-01T13:54:09.722Z,101687.64
2017-08-01T13:56:35.978Z,101688.92
2017-08-01T13:59:02.224Z,101686.86
2017-08-01T14:01:28.487Z,101694.74
2017-08-01T14:03:54.743Z,101689.78
2017-08-01T14:06:21.013Z,101695.19
2017-08-01T14:08:47.285Z,101688.05
2017-08-01T14:11:13.538Z,101687.48
2017-08-01T14:13:39.812Z,101695.84
2017-08-01T14:17:35.492Z,101683.23
2017-08-01T14:20:01.744Z,101690.81
2017-08-01T14:22:27.994Z,101685.16
2017-08-01T14:24:54.248Z,101687.87
2017-08-01T14:27:20.539Z,101693.91
2017-08-01T14:29:46.776Z,101687.08
2017-08-01T14:32:13.025Z,101699.31
2017-08-01T14:34:39.259Z,101683.45
2017-08-01T14:37:05.479Z,101693.41
2017-08-01T14:39:31.741Z,101683.92
2017-08-01T14:41:57.983Z,101687.37
2017-08-01T14:44:24.236Z,101686.08
2017-08-01T14:46:50.533Z,101687.83
2017-08-01T14:49:16.779Z,101691.02
2017-08-01T14:51:43.013Z,101695.15
2017-08-01T14:54:09.278Z,101693.36
2017-08-01T14:56:35.514Z,101695.87
2017-08-01T14:59:01.780Z,101701.94
2017-08-01T15:01:28.088Z,101707.16
2017-08-01T15:03:54.372Z,101704.19
2017-08-01T15:06:20.626Z,101707.09
2017-08-01T15:08:46.884Z,101706.59
2017-08-01T15:11:13.125Z,101701.25
2017-08-01T15:13:39.377Z,101708.94
2017-08-01T15:17:35.331Z,101701.92
2017-08-01T15:20:02.005Z,101699.78
2017-08-01T15:22:28.264Z,101700.41
2017-08-01T15:24:54.544Z,101695.65
2017-08-01T15:27:20.801Z,101698.59
2017-08-01T15:29:53.980Z,101686.80
2017-08-01T15:32:20.265Z,101689.55
2017-08-01T15:34:46.504Z,101681.69
2017-08-01T15:37:12.748Z,101683.97
2017-08-01T15:39:39.049Z,101688.59
2017-08-01T15:42:05.303Z,101682.55
2017-08-01T15:44:31.546Z,101680.64
2017-08-01T15:46:57.825Z,101684.75
2017-08-01T15:49:24.073Z,101678.46
2017-08-01T15:51:50.336Z,101671.93
2017-08-01T15:54:16.608Z,101674.44
2017-08-01T15:56:42.888Z,101668.17
2017-08-01T15:59:09.180Z,101667.19
2017-08-01T16:01:35.408Z,101670.19
2017-08-01T16:04:01.656Z,101676.11
2017-08-01T16:06:27.965Z,101674.52
2017-08-01T16:08:54.223Z,101678.65
2017-08-01T16:11:20.457Z,101683.97
2017-08-01T16:13:46.685Z,101683.78
2017-08-01T16:17:35.465Z,101687.05
2017-08-01T16:20:01.732Z,101684.55
2017-08-01T16:22:27.970Z,101674.31
2017-08-01T16:24:54.243Z,101678.61
2017-08-01T16:27:20.508Z,101683.84
2017-08-01T16:29:46.749Z,101684.41
2017-08-01T16:32:13.021Z,101681.06
2017-08-01T16:34:39.260Z,101684.41
2017-08-01T16:37:05.518Z,101688.11
2017-08-01T16:39:32.073Z,101694.61
2017-08-01T16:42:04.252Z,101692.19
2017-08-01T16:44:30.505Z,101694.06
2017-08-01T16:46:57.778Z,101699.24
2017-08-01T16:49:24.761Z,101698.53
2017-08-01T16:51:51.909Z,101693.94
2017-08-01T16:54:23.711Z,101692.22
2017-08-01T16:56:50.763Z,101698.63
2017-08-01T16:59:17.899Z,101694.54
2017-08-01T17:01:44.872Z,101693.63
2017-08-01T17:04:11.938Z,101697.08
2017-08-01T17:06:38.969Z,101700.17
2017-08-01T17:09:06.232Z,101703.77
2017-08-01T17:11:32.653Z,101708.69
2017-08-01T17:13:58.892Z,101708.92
2017-08-01T17:17:35.894Z,101697.66
2017-08-01T17:20:02.438Z,101703.92
2017-08-01T17:22:28.758Z,101706.86
2017-08-01T17:24:55.050Z,101701.45
2017-08-01T17:27:21.337Z,101704.04
2017-08-01T17:29:47.578Z,101698.23
2017-08-01T17:32:13.848Z,101693.77
2017-08-01T17:34:40.095Z,101703.14
2017-08-01T17:37:06.861Z,101701.04
2017-08-01T17:39:33.129Z,101699.19
2017-08-01T17:41:59.381Z,101701.03
2017-08-01T17:44:25.619Z,101707.80
2017-08-01T17:46:51.899Z,101711.66
2017-08-01T17:49:18.151Z,101706.11
2017-08-01T17:51:44.404Z,101708.99
2017-08-01T17:54:10.702Z,101715.09
2017-08-01T17:56:36.944Z,101717.98
2017-08-01T17:59:03.199Z,101713.33
2017-08-01T18:01:29.481Z,101717.22
2017-08-01T18:03:55.742Z,101719.88
2017-08-01T18:06:22.032Z,101726.55
2017-08-01T18:08:48.300Z,101737.95
2017-08-01T18:11:14.605Z,101732.23
2017-08-01T18:13:40.852Z,101728.31
2017-08-01T18:17:35.525Z,101727.34
2017-08-01T18:20:02.557Z,101732.90
2017-08-01T18:22:28.813Z,101740.70
2017-08-01T18:24:55.072Z,101741.17
2017-08-01T18:27:21.308Z,101746.41
2017-08-01T18:29:47.548Z,101742.47
2017-08-01T18:32:13.822Z,101745.22
2017-08-01T18:34:40.081Z,101745.50
2017-08-01T18:37:06.356Z,101738.17
2017-08-01T18:39:32.633Z,101750.72
2017-08-01T18:41:58.889Z,101753.73
2017-08-01T18:44:25.145Z,101753.78
2017-08-01T18:46:51.416Z,101756.48
2017-08-01T18:49:17.656Z,101762.83
2017-08-01T18:51:43.924Z,101756.69
2017-08-01T18:54:10.197Z,101762.60
2017-08-01T18:56:36.432Z,101759.34
2017-08-01T18:59:02.673Z,101763.10
2017-08-01T19:01:28.941Z,101766.56
2017-08-01T19:03:55.207Z,101764.59
2017-08-01T19:06:21.681Z,101767.66
2017-08-01T19:08:47.937Z,101774.96
2017-08-01T19:11:14.213Z,101777.37
2017-08-01T19:13:40.497Z,101785.63
2017-08-01T19:17:35.200Z,101786.91
2017-08-01T19:20:01.463Z,101780.98
2017-08-01T19:22:27.709Z,101786.45
2017-08-01T19:24:54.020Z,101781.09
2017-08-01T19:27:20.265Z,101787.30
2017-08-01T19:29:46.501Z,101795.64
2017-08-01T19:32:12.812Z,101792.19
2017-08-01T19:34:39.054Z,101797.45
2017-08-01T19:37:05.303Z,101800.15
2017-08-01T19:39:31.567Z,101794.95
2017-08-01T19:41:57.819Z,101794.52
2017-08-01T19:44:24.072Z,101796.22
2017-08-01T19:46:50.361Z,101798.39
2017-08-01T19:49:16.619Z,101793.25
2017-08-01T19:51:42.864Z,101797.21
2017-08-01T19:54:09.142Z,101791.24
2017-08-01T19:56:35.373Z,101794.67
2017-08-01T19:59:01.694Z,101789.05
2017-08-01T20:01:27.968Z,101792.53
2017-08-01T20:03:54.209Z,101795.06
2017-08-01T20:06:20.462Z,101801.84
2017-08-01T20:08:47.489Z,101806.19
2017-08-01T20:11:13.752Z,101808.00
2017-08-01T20:13:39.998Z,101814.11
2017-08-01T20:17:35.615Z,101821.91
2017-08-01T20:20:01.884Z,101817.55
2017-08-01T20:22:28.171Z,101818.27
2017-08-01T20:24:54.430Z,101820.01
2017-08-01T20:27:20.660Z,101823.55
2017-08-01T20:29:46.904Z,101825.80
2017-08-01T20:32:13.295Z,101836.76
2017-08-01T20:34:39.542Z,101838.27
2017-08-01T20:37:05.797Z,101838.20
2017-08-01T20:39:32.086Z,101834.13
2017-08-01T20:41:58.326Z,101837.05
2017-08-01T20:44:24.586Z,101833.91
2017-08-01T20:46:50.870Z,101842.41
2017-08-01T20:49:17.128Z,101841.52
2017-08-01T20:51:43.370Z,101836.45
2017-08-01T20:54:09.664Z,101841.53
2017-08-01T20:56:35.909Z,101828.47
2017-08-01T20:59:02.173Z,101836.00
2017-08-01T21:01:28.443Z,101838.87
2017-08-01T21:03:54.703Z,101834.31
2017-08-01T21:06:20.982Z,101838.16
2017-08-01T21:08:47.349Z,101838.94
2017-08-01T21:11:13.670Z,101836.67
2017-08-01T21:13:39.954Z,101836.73
2017-08-01T21:17:36.701Z,101832.91
2017-08-01T21:20:02.952Z,101835.59
2017-08-01T21:22:29.202Z,101834.91
2017-08-01T21:24:55.481Z,101835.64
2017-08-01T21:27:21.728Z,101831.31
2017-08-01T21:29:47.982Z,101829.95
2017-08-01T21:32:14.250Z,101838.41
2017-08-01T21:34:40.568Z,101831.84
2017-08-01T21:37:06.815Z,101827.91
2017-08-01T21:39:33.077Z,101831.56
2017-08-01T21:41:59.356Z,101833.73
2017-08-01T21:44:25.620Z,101833.05
2017-08-01T21:46:51.879Z,101839.01
2017-08-01T21:49:18.119Z,101845.25
2017-08-01T21:51:44.378Z,101846.03
2017-08-01T21:54:10.619Z,101850.41
2017-08-01T21:56:36.865Z,101854.70
2017-08-01T21:59:03.101Z,101843.05
2017-08-01T22:01:29.359Z,101846.53
2017-08-01T22:03:55.588Z,101836.09
2017-08-01T22:06:22.029Z,101842.50
2017-08-01T22:08:48.282Z,101842.82
2017-08-01T22:11:14.514Z,101844.37
2017-08-01T22:13:40.770Z,101844.42
2017-08-01T22:17:36.684Z,101842.86
2017-08-01T22:20:02.945Z,101840.55
2017-08-01T22:22:29.206Z,101848.94
2017-08-01T22:24:55.473Z,101845.97
2017-08-01T22:27:21.711Z,101846.58
2017-08-01T22:29:47.965Z,101848.23
2017-08-01T22:32:14.234Z,101843.64
2017-08-01T22:34:40.480Z,101846.23
2017-08-01T22:37:06.727Z,101843.22
2017-08-01T22:39:32.991Z,101839.79
2017-08-01T22:41:59.216Z,101845.02
2017-08-01T22:44:25.468Z,101831.34
2017-08-01T22:46:51.729Z,101833.92
2017-08-01T22:49:17.972Z,101830.37
2017-08-01T22:51:44.216Z,101825.98
2017-08-01T22:54:10.477Z,101821.31
2017-08-01T22:56:36.704Z,101827.83
2017-08-01T22:59:02.944Z,101821.72
2017-08-01T23:01:31.494Z,101823.42
2017-08-01T23:03:57.748Z,101814.03
2017-08-01T23:06:23.991Z,101817.24
2017-08-01T23:08:50.345Z,101822.61
2017-08-01T23:11:16.581Z,101832.19
2017-08-01T23:13:42.833Z,101829.30
2017-08-01T23:17:36.538Z,101823.81
2017-08-01T23:20:02.780Z,101815.98
2017-08-01T23:22:29.032Z,101815.66
2017-08-01T23:24:55.296Z,101804.41
2017-08-01T23:27:21.519Z,101805.88
2017-08-01T23:29:47.752Z,101813.55
2017-08-01T23:32:14.006Z,101811.62
2017-08-01T23:34:40.244Z,101802.83
2017-08-01T23:37:06.485Z,101805.11
2017-08-01T23:39:32.822Z,101805.53
2017-08-01T23:41:59.051Z,101802.20
2017-08-01T23:44:25.287Z,101804.88
2017-08-01T23:46:51.588Z,101807.33
2017-08-01T23:49:17.836Z,101799.19
2017-08-01T23:51:44.097Z,101805.09
2017-08-01T23:54:10.357Z,101799.31
2017-08-01T23:56:36.608Z,101802.31
2017-08-01T23:59:02.844Z,101798.84
